createdAt,value
2017-11-10T00:01:28.606Z,8.10
2017-11-10T00:03:56.773Z,8.20
2017-11-10T00:06:24.915Z,8.40
2017-11-10T00:08:53.105Z,8.10
2017-11-10T00:11:21.510Z,8.40
2017-11-10T00:13:49.677Z,8.80
2017-11-10T00:16:17.823Z,8.70
2017-11-10T00:18:45.992Z,8.60
2017-11-10T00:21:14.135Z,8.50
2017-11-10T00:23:42.854Z,8.30
2017-11-10T00:26:11.230Z,8.30
2017-11-10T00:28:39.375Z,8.60
2017-11-10T00:31:07.569Z,8.60
2017-11-10T00:33:35.760Z,8.30
2017-11-10T00:36:03.923Z,8.40
2017-11-10T00:38:32.104Z,8.50
2017-11-10T00:41:00.264Z,8.40
2017-11-10T00:43:28.416Z,8.40
2017-11-10T00:45:56.628Z,8.40
2017-11-10T00:48:25.579Z,8.30
2017-11-10T00:50:53.778Z,8.50
2017-11-10T00:53:22.018Z,8.60
2017-11-10T00:55:50.188Z,8.60
2017-11-10T00:58:18.409Z,8.50
2017-11-10T01:00:46.616Z,8.70
2017-11-10T01:03:14.776Z,8.60
2017-11-10T01:05:42.936Z,8.80
2017-11-10T01:08:11.084Z,8.50
2017-11-10T01:10:39.650Z,8.00
2017-11-10T01:13:07.824Z,8.20
2017-11-10T01:15:35.996Z,7.90
2017-11-10T01:18:04.602Z,7.80
2017-11-10T01:20:35.281Z,7.80
2017-11-10T01:23:04.208Z,7.70
2017-11-10T01:25:32.380Z,7.80
2017-11-10T01:28:00.537Z,7.90
2017-11-10T01:30:28.732Z,7.80
2017-11-10T01:32:56.972Z,7.70
2017-11-10T01:35:25.892Z,7.70
2017-11-10T01:37:54.062Z,7.90
2017-11-10T01:40:22.477Z,7.80
2017-11-10T01:42:50.657Z,7.80
2017-11-10T01:45:18.808Z,7.60
2017-11-10T01:47:46.968Z,7.50
2017-11-10T01:50:15.111Z,7.50
2017-11-10T01:52:44.039Z,7.70
2017-11-10T01:55:12.194Z,7.60
2017-11-10T01:57:40.364Z,7.50
2017-11-10T02:00:08.536Z,7.50
2017-11-10T02:02:36.705Z,7.50
2017-11-10T02:05:05.488Z,7.40
2017-11-10T02:07:33.665Z,7.40
2017-11-10T02:10:01.816Z,7.60
2017-11-10T02:12:30.809Z,7.40
2017-11-10T02:14:59.745Z,7.40
2017-11-10T02:17:27.934Z,7.30
2017-11-10T02:19:56.106Z,7.30
2017-11-10T02:22:24.320Z,7.20
2017-11-10T02:24:53.236Z,7.30
2017-11-10T02:27:21.383Z,7.30
2017-11-10T02:29:50.323Z,7.30
2017-11-10T02:32:18.476Z,7.10
2017-11-10T02:34:51.564Z,7.10
2017-11-10T02:37:19.720Z,7.30
2017-11-10T02:39:47.899Z,7.20
2017-11-10T02:42:16.061Z,7.20
2017-11-10T02:44:45.115Z,7.40
2017-11-10T02:47:13.277Z,7.20
2017-11-10T02:49:41.452Z,7.20
2017-11-10T02:52:09.600Z,7.30
2017-11-10T02:54:37.778Z,7.20
2017-11-10T02:57:05.946Z,7.30
2017-11-10T02:59:34.128Z,7.10
2017-11-10T03:02:02.288Z,7.20
2017-11-10T03:04:30.472Z,7.30
2017-11-10T03:06:58.644Z,7.30
2017-11-10T03:09:26.817Z,7.30
2017-11-10T03:11:54.979Z,7.30
2017-11-10T03:14:23.163Z,7.40
2017-11-10T03:16:51.321Z,7.30
2017-11-10T03:19:19.535Z,7.30
2017-11-10T03:21:47.709Z,7.40
2017-11-10T03:24:15.880Z,7.40
2017-11-10T03:26:44.099Z,7.40
2017-11-10T03:29:12.700Z,7.40
2017-11-10T03:31:40.869Z,7.30
2017-11-10T03:34:09.020Z,7.30
2017-11-10T03:36:37.962Z,7.30
2017-11-10T03:39:06.120Z,7.40
2017-11-10T03:41:34.296Z,7.40
2017-11-10T03:44:02.459Z,7.10
2017-11-10T03:46:30.652Z,7.20
2017-11-10T03:48:58.812Z,7.00
2017-11-10T03:51:26.982Z,7.10
2017-11-10T03:53:55.182Z,7.20
2017-11-10T03:56:23.353Z,7.20
2017-11-10T03:58:51.513Z,7.20
2017-11-10T04:01:19.695Z,7.20
2017-11-10T04:03:47.851Z,7.10
2017-11-10T04:06:16.012Z,7.00
2017-11-10T04:08:44.167Z,7.20
2017-11-10T04:11:12.369Z,7.50
2017-11-10T04:13:40.516Z,7.40
2017-11-10T04:16:08.667Z,7.30
2017-11-10T04:18:37.601Z,7.30
2017-11-10T04:21:05.760Z,7.20
2017-11-10T04:23:33.946Z,7.20
2017-11-10T04:26:02.468Z,7.20
2017-11-10T04:28:30.656Z,7.20
2017-11-10T04:30:59.575Z,7.20
2017-11-10T04:33:27.748Z,7.20
2017-11-10T04:35:55.897Z,7.30
2017-11-10T04:38:24.080Z,7.30
2017-11-10T04:40:52.234Z,7.10
2017-11-10T04:43:21.164Z,7.20
2017-11-10T04:45:49.512Z,7.20
2017-11-10T04:48:18.456Z,7.20
2017-11-10T04:50:46.633Z,7.30
2017-11-10T04:53:14.818Z,7.20
2017-11-10T04:55:42.998Z,7.30
2017-11-10T04:58:11.172Z,7.40
2017-11-10T05:00:39.323Z,7.30
2017-11-10T05:03:07.496Z,7.30
2017-11-10T05:05:35.646Z,7.20
2017-11-10T05:08:03.827Z,7.20
2017-11-10T05:10:31.996Z,7.10
2017-11-10T05:13:00.153Z,7.10
2017-11-10T05:15:28.354Z,7.40
2017-11-10T05:17:56.511Z,7.30
2017-11-10T05:20:24.692Z,7.20
2017-11-10T05:22:52.852Z,7.30
2017-11-10T05:25:21.580Z,7.30
2017-11-10T05:27:49.740Z,7.30
2017-11-10T05:30:17.918Z,7.40
2017-11-10T05:32:46.077Z,7.20
2017-11-10T05:35:14.253Z,7.20
2017-11-10T05:37:42.405Z,7.40
2017-11-10T05:40:10.576Z,7.40
2017-11-10T05:42:38.773Z,7.50
2017-11-10T05:45:06.964Z,7.50
2017-11-10T05:47:35.134Z,7.50
2017-11-10T05:50:03.317Z,7.50
2017-11-10T05:52:32.244Z,7.50
2017-11-10T05:55:00.418Z,7.40
2017-11-10T05:57:28.580Z,7.40
2017-11-10T05:59:56.762Z,7.50
2017-11-10T06:02:24.916Z,7.40
2017-11-10T06:04:53.856Z,7.50
2017-11-10T06:07:22.022Z,7.50
2017-11-10T06:09:50.220Z,7.40
2017-11-10T06:12:18.372Z,7.30
2017-11-10T06:14:46.537Z,7.40
2017-11-10T06:17:14.729Z,7.40
2017-11-10T06:19:42.892Z,7.40
2017-11-10T06:22:11.060Z,7.30
2017-11-10T06:24:39.214Z,7.40
2017-11-10T06:27:07.409Z,7.40
2017-11-10T06:29:35.603Z,7.40
2017-11-10T06:32:03.773Z,7.50
2017-11-10T06:34:31.937Z,7.50
2017-11-10T06:37:00.113Z,7.60
2017-11-10T06:39:28.262Z,7.30
2017-11-10T06:41:56.438Z,7.50
2017-11-10T06:44:24.597Z,7.50
2017-11-10T06:46:52.801Z,7.60
2017-11-10T06:49:20.963Z,7.40
2017-11-10T06:51:49.149Z,7.50
2017-11-10T06:54:17.336Z,7.50
2017-11-10T06:56:45.583Z,7.50
2017-11-10T06:59:13.731Z,7.40
2017-11-10T07:01:41.897Z,7.40
2017-11-10T07:04:10.064Z,7.50
2017-11-10T07:06:38.997Z,7.60
2017-11-10T07:09:07.645Z,7.50
2017-11-10T07:11:35.817Z,7.40
2017-11-10T07:14:03.981Z,7.40
2017-11-10T07:16:32.924Z,7.60
2017-11-10T07:19:01.085Z,7.60
2017-11-10T07:21:29.260Z,7.70
2017-11-10T07:23:57.905Z,7.70
2017-11-10T07:26:26.084Z,7.80
2017-11-10T07:28:54.232Z,7.70
2017-11-10T07:31:23.195Z,7.70
2017-11-10T07:33:51.363Z,7.50
2017-11-10T07:36:19.546Z,7.80
2017-11-10T07:38:47.709Z,7.70
2017-11-10T07:41:15.879Z,7.90
2017-11-10T07:43:44.052Z,7.70
2017-11-10T07:46:12.908Z,7.70
2017-11-10T07:48:41.085Z,7.80
2017-11-10T07:51:09.247Z,8.00
2017-11-10T07:53:37.413Z,8.00
2017-11-10T07:56:05.572Z,8.00
2017-11-10T07:58:34.583Z,8.10
2017-11-10T08:01:02.741Z,8.10
2017-11-10T08:03:32.301Z,8.30
2017-11-10T08:06:00.883Z,8.00
2017-11-10T08:08:29.160Z,7.90
2017-11-10T08:10:57.314Z,8.00
2017-11-10T08:13:25.489Z,8.00
2017-11-10T08:15:53.646Z,7.90
2017-11-10T08:18:21.813Z,7.90
2017-11-10T08:20:49.981Z,8.10
2017-11-10T08:23:18.153Z,8.00
2017-11-10T08:25:46.310Z,8.10
2017-11-10T08:28:15.247Z,8.30
2017-11-10T08:30:43.440Z,8.40
2017-11-10T08:33:11.618Z,8.50
2017-11-10T08:35:39.772Z,8.30
2017-11-10T08:38:07.944Z,8.30
2017-11-10T08:40:36.084Z,8.30
2017-11-10T08:43:04.255Z,8.20
2017-11-10T08:45:32.420Z,8.20
2017-11-10T08:48:00.596Z,8.50
2017-11-10T08:50:28.812Z,8.20
2017-11-10T08:52:56.996Z,8.20
2017-11-10T08:55:25.165Z,8.20
2017-11-10T08:57:53.356Z,8.40
2017-11-10T09:00:21.509Z,8.30
2017-11-10T09:02:49.664Z,8.30
2017-11-10T09:05:17.838Z,8.50
2017-11-10T09:07:45.996Z,8.20
2017-11-10T09:10:14.167Z,8.10
2017-11-10T09:12:42.324Z,8.30
2017-11-10T09:15:10.507Z,8.30
2017-11-10T09:17:38.660Z,8.20
2017-11-10T09:20:07.592Z,8.30
2017-11-10T09:22:35.749Z,8.40
2017-11-10T09:25:03.937Z,8.30
2017-11-10T09:27:32.092Z,8.40
2017-11-10T09:30:06.752Z,8.30
2017-11-10T09:35:39.387Z,8.50
2017-11-10T09:38:08.302Z,8.40
2017-11-10T09:40:42.980Z,8.60
2017-11-10T09:43:16.742Z,8.40
2017-11-10T09:45:45.220Z,8.30
2017-11-10T09:48:19.017Z,8.30
2017-11-10T09:50:52.801Z,8.40
2017-11-10T09:56:33.167Z,8.30
2017-11-10T09:59:05.089Z,8.10
2017-11-10T10:01:38.964Z,8.10
2017-11-10T10:04:12.647Z,8.10
2017-11-10T10:06:47.312Z,7.90
2017-11-10T10:09:17.614Z,8.20
2017-11-10T10:11:52.015Z,8.20
2017-11-10T10:17:30.022Z,8.40
2017-11-10T10:23:10.120Z,8.20
2017-11-10T10:25:38.292Z,8.20
2017-11-10T10:28:06.452Z,8.40
2017-11-10T10:30:35.402Z,8.40
2017-11-10T10:33:03.564Z,8.60
2017-11-10T10:35:31.751Z,8.70
2017-11-10T10:38:00.017Z,8.60
2017-11-10T10:40:28.168Z,8.70
2017-11-10T10:42:56.345Z,8.70
2017-11-10T10:45:24.506Z,8.50
2017-11-10T10:47:52.714Z,8.90
2017-11-10T10:50:20.864Z,9.00
2017-11-10T10:52:49.059Z,9.10
2017-11-10T10:55:17.207Z,9.20
2017-11-10T10:57:45.388Z,9.30
2017-11-10T11:00:13.550Z,9.30
2017-11-10T11:02:41.736Z,9.40
2017-11-10T11:05:09.897Z,9.30
2017-11-10T11:07:38.079Z,9.30
2017-11-10T11:10:06.470Z,9.50
2017-11-10T11:12:34.654Z,9.40
2017-11-10T11:15:02.831Z,9.30
2017-11-10T11:17:30.993Z,9.40
2017-11-10T11:19:59.144Z,9.50
2017-11-10T11:22:28.321Z,9.60
2017-11-10T11:24:56.524Z,9.60
2017-11-10T11:27:24.672Z,9.60
2017-11-10T11:29:52.887Z,9.50
2017-11-10T11:32:21.045Z,9.50
2017-11-10T11:34:49.232Z,9.40
2017-11-10T11:37:17.372Z,9.30
2017-11-10T11:39:45.824Z,9.20
2017-11-10T11:42:13.993Z,9.30
2017-11-10T11:44:43.567Z,9.10
2017-11-10T11:47:11.727Z,9.30
2017-11-10T11:49:40.217Z,9.10
2017-11-10T11:52:08.378Z,9.20
2017-11-10T11:54:36.578Z,9.10
2017-11-10T11:57:04.740Z,9.10
2017-11-10T11:59:32.913Z,9.20
2017-11-10T12:02:01.069Z,9.20
2017-11-10T12:04:29.239Z,9.10
2017-11-10T12:06:59.120Z,9.20
2017-11-10T12:09:27.293Z,9.20
2017-11-10T12:11:56.285Z,9.60
2017-11-10T12:14:24.445Z,9.30
2017-11-10T12:16:53.366Z,9.20
2017-11-10T12:19:21.550Z,9.10
2017-11-10T12:21:49.707Z,9.10
2017-11-10T12:24:17.872Z,8.90
2017-11-10T12:26:46.024Z,8.90
2017-11-10T12:29:14.962Z,8.90
2017-11-10T12:31:43.131Z,8.70
2017-11-10T12:34:11.385Z,8.60
2017-11-10T12:36:39.551Z,8.40
2017-11-10T12:39:07.737Z,8.50
2017-11-10T12:41:35.900Z,8.30
2017-11-10T12:44:04.068Z,8.30
2017-11-10T12:46:32.282Z,8.30
2017-11-10T12:49:00.994Z,8.00
2017-11-10T12:51:29.277Z,8.20
2017-11-10T12:53:58.192Z,8.20
2017-11-10T12:56:26.378Z,8.10
2017-11-10T12:58:54.586Z,8.00
2017-11-10T13:01:22.762Z,7.90
2017-11-10T13:03:50.929Z,8.00
2017-11-10T13:06:19.108Z,7.90
2017-11-10T13:08:47.261Z,7.90
2017-11-10T13:11:15.429Z,7.90
2017-11-10T13:13:43.588Z,7.90
2017-11-10T13:16:11.765Z,7.90
2017-11-10T13:18:39.926Z,7.90
2017-11-10T13:21:08.096Z,8.00
2017-11-10T13:23:46.160Z,8.10
2017-11-10T13:26:14.640Z,8.40
2017-11-10T13:28:42.814Z,8.40
2017-11-10T13:31:11.065Z,8.30
2017-11-10T13:33:39.221Z,8.40
2017-11-10T13:36:07.399Z,8.40
2017-11-10T13:38:35.978Z,8.20
2017-11-10T13:41:04.145Z,8.10
2017-11-10T13:43:32.302Z,8.10
2017-11-10T13:46:00.471Z,8.20
2017-11-10T13:48:28.641Z,8.30
2017-11-10T13:50:56.819Z,8.20
2017-11-10T13:53:24.972Z,8.20
2017-11-10T13:55:54.417Z,8.20
2017-11-10T13:58:22.582Z,8.20
2017-11-10T14:00:51.493Z,8.30
2017-11-10T14:03:19.653Z,8.20
2017-11-10T14:05:47.844Z,8.20
2017-11-10T14:08:16.024Z,8.20
2017-11-10T14:10:44.189Z,8.30
2017-11-10T14:13:12.377Z,8.30
2017-11-10T14:15:40.650Z,8.30
2017-11-10T14:18:08.873Z,8.40
2017-11-10T14:20:37.769Z,8.30
2017-11-10T14:23:05.937Z,8.40
2017-11-10T14:25:34.079Z,8.40
2017-11-10T14:28:03.012Z,8.20
2017-11-10T14:30:31.169Z,8.20
2017-11-10T14:32:59.467Z,8.30
2017-11-10T14:35:27.631Z,8.30
2017-11-10T14:37:55.800Z,8.20
2017-11-10T14:40:24.362Z,8.10
2017-11-10T14:42:52.536Z,8.10
2017-11-10T14:45:20.696Z,8.00
2017-11-10T14:47:49.632Z,8.00
2017-11-10T14:50:17.787Z,8.00
2017-11-10T14:52:45.972Z,8.00
2017-11-10T14:55:14.127Z,8.00
2017-11-10T14:57:42.332Z,8.00
2017-11-10T15:00:10.500Z,8.00
2017-11-10T15:02:39.098Z,8.10
2017-11-10T15:05:07.275Z,8.00
2017-11-10T15:07:35.468Z,8.00
2017-11-10T15:10:03.646Z,7.90
2017-11-10T15:12:32.580Z,7.90
2017-11-10T15:15:00.742Z,7.80
2017-11-10T15:17:28.907Z,7.80
2017-11-10T15:19:57.830Z,7.80
2017-11-10T15:22:26.003Z,7.80
2017-11-10T15:24:54.868Z,7.80
2017-11-10T15:27:23.074Z,7.80
2017-11-10T15:29:51.234Z,7.70
2017-11-10T15:32:19.407Z,7.70
2017-11-10T15:34:47.585Z,7.80
2017-11-10T15:37:15.740Z,7.80
2017-11-10T15:39:43.922Z,7.80
2017-11-10T15:42:12.124Z,7.80
2017-11-10T15:44:40.375Z,7.70
2017-11-10T15:47:08.565Z,7.70
2017-11-10T15:49:37.560Z,7.70
2017-11-10T15:52:05.730Z,7.70
2017-11-10T15:54:33.913Z,7.70
2017-11-10T15:57:02.065Z,7.60
2017-11-10T15:59:30.318Z,7.70
2017-11-10T16:01:58.468Z,7.70
2017-11-10T16:04:26.636Z,7.70
2017-11-10T16:06:55.560Z,7.80
2017-11-10T16:09:23.744Z,7.70
2017-11-10T16:11:51.912Z,7.70
2017-11-10T16:14:20.096Z,7.70
2017-11-10T16:16:48.249Z,7.80
2017-11-10T16:19:16.432Z,7.80
2017-11-10T16:21:44.576Z,7.70
2017-11-10T16:24:12.728Z,7.80
2017-11-10T16:26:42.124Z,7.70
2017-11-10T16:29:11.045Z,7.70
2017-11-10T16:31:39.214Z,7.70
2017-11-10T16:34:07.370Z,7.80
2017-11-10T16:36:36.344Z,7.70
2017-11-10T16:39:04.520Z,7.80
2017-11-10T16:41:33.461Z,7.80
2017-11-10T16:44:01.621Z,7.80
2017-11-10T16:46:29.839Z,7.80
2017-11-10T16:48:58.004Z,7.80
2017-11-10T16:51:26.182Z,7.90
2017-11-10T16:53:54.348Z,7.80
2017-11-10T16:56:22.955Z,7.80
2017-11-10T16:58:51.185Z,7.80
2017-11-10T17:01:19.350Z,7.80
2017-11-10T17:03:47.524Z,7.80
2017-11-10T17:06:15.694Z,7.80
2017-11-10T17:08:43.843Z,7.80
2017-11-10T17:11:12.773Z,7.90
2017-11-10T17:13:40.937Z,7.90
2017-11-10T17:16:09.126Z,7.90
2017-11-10T17:18:37.793Z,7.90
2017-11-10T17:21:06.314Z,7.90
2017-11-10T17:23:34.480Z,7.90
2017-11-10T17:26:02.629Z,7.80
2017-11-10T17:28:30.808Z,7.90
2017-11-10T17:30:58.968Z,7.80
2017-11-10T17:33:27.348Z,7.80
2017-11-10T17:35:55.529Z,7.80
2017-11-10T17:38:23.705Z,7.70
2017-11-10T17:40:51.884Z,7.70
2017-11-10T17:43:20.055Z,7.70
2017-11-10T17:45:48.243Z,7.70
2017-11-10T17:48:16.405Z,7.60
2017-11-10T17:50:44.567Z,7.60
2017-11-10T17:53:12.738Z,7.60
2017-11-10T17:55:40.909Z,7.50
2017-11-10T17:58:09.089Z,7.60
2017-11-10T18:00:37.285Z,7.60
2017-11-10T18:03:05.431Z,7.60
2017-11-10T18:05:33.599Z,7.50
2017-11-10T18:08:02.913Z,7.60
2017-11-10T18:10:31.076Z,7.50
2017-11-10T18:12:59.249Z,7.60
2017-11-10T18:15:27.424Z,7.50
2017-11-10T18:17:55.586Z,7.50
2017-11-10T18:20:23.753Z,7.50
2017-11-10T18:22:51.906Z,7.60
2017-11-10T18:25:20.130Z,7.60
2017-11-10T18:27:48.287Z,7.50
2017-11-10T18:30:16.465Z,7.50
2017-11-10T18:32:44.617Z,7.60
2017-11-10T18:35:12.781Z,7.40
2017-11-10T18:37:40.936Z,7.50
2017-11-10T18:40:09.099Z,7.60
2017-11-10T18:42:38.025Z,7.40
2017-11-10T18:45:06.220Z,7.40
2017-11-10T18:47:34.379Z,7.40
2017-11-10T18:50:02.543Z,7.50
2017-11-10T18:52:30.754Z,7.40
2017-11-10T18:55:02.748Z,7.30
2017-11-10T18:57:31.672Z,7.40
2017-11-10T18:59:59.856Z,7.30
2017-11-10T19:02:28.047Z,7.20
2017-11-10T19:04:56.210Z,7.10
2017-11-10T19:07:24.392Z,7.10
2017-11-10T19:09:52.548Z,6.90
2017-11-10T19:12:20.724Z,6.80
2017-11-10T19:14:48.908Z,6.90
2017-11-10T19:17:17.056Z,6.80
2017-11-10T19:19:45.199Z,6.80
2017-11-10T19:22:14.133Z,6.90
2017-11-10T19:24:42.279Z,6.90
2017-11-10T19:27:10.456Z,7.10
2017-11-10T19:29:38.596Z,7.10
2017-11-10T19:32:07.531Z,7.20
2017-11-10T19:34:35.680Z,7.20
2017-11-10T19:37:03.826Z,7.10
2017-11-10T19:39:32.788Z,6.90
2017-11-10T19:42:00.932Z,6.80
2017-11-10T19:44:29.088Z,6.70
2017-11-10T19:46:57.237Z,6.60
2017-11-10T19:49:26.194Z,6.60
2017-11-10T19:51:54.341Z,6.60
2017-11-10T19:54:22.519Z,6.60
2017-11-10T19:56:50.671Z,6.50
2017-11-10T19:59:18.827Z,6.40
2017-11-10T20:01:47.372Z,6.40
2017-11-10T20:04:15.533Z,6.50
2017-11-10T20:06:43.680Z,6.40
2017-11-10T20:09:11.885Z,6.40
2017-11-10T20:11:40.032Z,6.40
2017-11-10T20:14:08.173Z,6.40
2017-11-10T20:16:37.536Z,6.40
2017-11-10T20:19:05.691Z,6.50
2017-11-10T20:21:33.861Z,6.50
2017-11-10T20:24:02.001Z,6.50
2017-11-10T20:26:30.875Z,6.50
2017-11-10T20:28:59.816Z,6.40
2017-11-10T20:31:27.996Z,6.30
2017-11-10T20:33:56.146Z,6.40
2017-11-10T20:36:24.308Z,6.30
2017-11-10T20:38:52.460Z,6.20
2017-11-10T20:41:21.394Z,6.40
2017-11-10T20:43:49.550Z,6.30
2017-11-10T20:46:17.755Z,6.30
2017-11-10T20:48:45.899Z,6.30
2017-11-10T20:51:14.047Z,6.20
2017-11-10T20:53:43.164Z,6.30
2017-11-10T20:56:11.307Z,6.30
2017-11-10T20:58:40.864Z,6.30
2017-11-10T21:01:09.006Z,6.40
2017-11-10T21:03:37.641Z,6.40
2017-11-10T21:06:05.789Z,6.30
2017-11-10T21:08:33.956Z,6.40
2017-11-10T21:11:02.126Z,6.30
2017-11-10T21:13:30.288Z,6.30
2017-11-10T21:15:58.432Z,6.10
2017-11-10T21:18:27.673Z,6.20
2017-11-10T21:20:55.811Z,6.20
2017-11-10T21:23:24.743Z,6.20
2017-11-10T21:25:52.896Z,6.20
2017-11-10T21:28:21.081Z,6.10
2017-11-10T21:30:49.742Z,6.10
2017-11-10T21:33:17.892Z,6.10
2017-11-10T21:35:46.835Z,6.20
2017-11-10T21:38:14.991Z,6.20
2017-11-10T21:40:43.163Z,6.30
2017-11-10T21:43:11.316Z,6.30
2017-11-10T21:45:39.481Z,6.30
2017-11-10T21:48:07.632Z,6.40
2017-11-10T21:50:35.830Z,6.30
2017-11-10T21:53:05.443Z,6.40
2017-11-10T21:55:33.614Z,6.60
2017-11-10T21:58:01.764Z,6.60
2017-11-10T22:00:30.714Z,6.50
2017-11-10T22:02:58.856Z,6.50
2017-11-10T22:05:27.063Z,6.60
2017-11-10T22:07:55.217Z,6.50
2017-11-10T22:10:23.443Z,6.40
2017-11-10T22:12:51.775Z,6.50
2017-11-10T22:15:19.939Z,6.60
2017-11-10T22:17:48.684Z,6.60
2017-11-10T22:20:16.863Z,6.60
2017-11-10T22:22:45.789Z,6.50
2017-11-10T22:25:13.929Z,6.50
2017-11-10T22:27:42.869Z,6.40
2017-11-10T22:30:11.014Z,6.40
2017-11-10T22:32:39.181Z,6.40
2017-11-10T22:35:07.342Z,6.40
2017-11-10T22:37:35.561Z,6.50
2017-11-10T22:40:03.704Z,6.40
2017-11-10T22:42:32.043Z,6.40
2017-11-10T22:45:00.192Z,6.40
2017-11-10T22:47:28.345Z,6.40
2017-11-10T22:49:56.729Z,6.40
2017-11-10T22:52:24.893Z,6.40
2017-11-10T22:54:53.034Z,6.30
2017-11-10T22:57:22.028Z,6.30
2017-11-10T22:59:50.949Z,6.20
2017-11-10T23:02:19.541Z,6.10
2017-11-10T23:04:47.707Z,6.20
2017-11-10T23:07:15.869Z,6.20
2017-11-10T23:09:44.044Z,6.20
2017-11-10T23:12:12.189Z,6.10
2017-11-10T23:14:41.120Z,6.10
2017-11-10T23:17:09.296Z,6.20
2017-11-10T23:19:37.472Z,6.00
2017-11-10T23:22:05.641Z,6.00
2017-11-10T23:24:33.796Z,6.00
2017-11-10T23:27:02.843Z,6.00
2017-11-10T23:29:31.079Z,6.00
2017-11-10T23:31:59.216Z,6.20
2017-11-10T23:34:27.372Z,6.20
2017-11-10T23:36:56.287Z,6.30
2017-11-10T23:39:24.456Z,6.30
2017-11-10T23:41:52.602Z,6.20
2017-11-10T23:44:20.778Z,6.20
2017-11-10T23:46:49.709Z,6.10
2017-11-10T23:49:17.883Z,6.20
2017-11-10T23:51:46.072Z,6.20
2017-11-10T23:54:14.251Z,6.10
2017-11-10T23:56:42.405Z,6.40
2017-11-10T23:59:10.941Z,6.20
